Main page
Satellite images 10-day forecastsClimateMarine weather Cyclones Lightning AirportsFAQ Newsletter About
Weather : Europe Africa North America South America Asia Australia-Oceania Others
Languages Contact

Bucharest, Romania

Henri Coandă International Airport

latitude: 44-33N, longitude: 026-06E, elevation: 95 m


METAR: LROP 012200Z 35001KT CAVOK 18/16 Q1021 NOSIG
TAF: LROP 011700Z 0118/0218 05006KT CAVOK

Time: 01:13 (22:13 UTC)

Current weather observation

The report was made 13 minutes ago, at 22:00 UTC
Wind 1 kt from the North
Temperature 18°C
Humidity 88%
Pressure 1021 hPa
Visibility 10 km or more
no clouds below 1500 m and no cumulonimbus

Change units

Forecast

The report was made 5 hours and 13 minutes ago, at 17:00 UTC
Forecast valid from 01 at 18 UTC to 02 at 18 UTC
Wind 6 kt from the Northeast
Visibility 10 km or more
no clouds below 1500 m and no cumulonimbus
The information on this site is subject to a disclaimer
Weather : Europe Africa North America South America Asia Australia-Oceania Others
Satellite images 10-day forecastsClimateMarine weather Cyclones Lightning AirportsFAQ Languages Contact Newsletter About